Time;durP1;ratioP1;P1;durP2;ratioP2;P2;SDS_P1;SDS_P2;PMS_P1;PMS_P2;Temp;Humidity;BMP_temperature;BMP_pressure;BME280_temperature;BME280_humidity;BME280_pressure;Samples;Min_cycle;Max_cycle;Signal;HPM_P1;HPM_P2
2021/04/27 00:02:40;;;;;;;7.7;5.0;;;;;;;6.6;53.0;101200;;;;
2021/04/27 00:04:40;;;;;;;7.7;5.0;;;;;;;6.7;52.4;101210;;;;
2021/04/27 00:06:40;;;;;;;7.7;5.0;;;;;;;6.6;52.6;101210;;;;
2021/04/27 00:10:41;;;;;;;7.7;5.0;;;;;;;6.5;53.0;101190;;;;
2021/04/27 00:18:40;;;;;;;5.9;4.9;;;;;;;6.4;53.1;101190;;;;
2021/04/27 00:20:40;;;;;;;5.9;4.9;;;;;;;6.3;53.6;101180;;;;
2021/04/27 00:22:40;;;;;;;5.9;4.9;;;;;;;6.1;54.5;101180;;;;
2021/04/27 00:24:40;;;;;;;5.9;4.9;;;;;;;6.2;54.2;101180;;;;
2021/04/27 00:26:40;;;;;;;5.9;4.9;;;;;;;6.1;54.2;101170;;;;
2021/04/27 00:28:40;;;;;;;5.9;4.9;;;;;;;6.2;53.9;101170;;;;
2021/04/27 00:32:40;;;;;;;5.9;4.9;;;;;;;6.1;54.3;101170;;;;
2021/04/27 00:34:40;;;;;;;5.9;4.9;;;;;;;6.2;53.8;101160;;;;
2021/04/27 00:38:40;;;;;;;6.2;5.2;;;;;;;6.1;54.2;101160;;;;
2021/04/27 00:46:40;;;;;;;6.2;5.2;;;;;;;5.9;54.5;101150;;;;
2021/04/27 00:50:40;;;;;;;6.2;5.2;;;;;;;5.8;55.1;101150;;;;
2021/04/27 00:52:40;;;;;;;6.2;5.2;;;;;;;5.9;54.8;101150;;;;
2021/04/27 00:56:40;;;;;;;8.0;5.6;;;;;;;5.8;55.0;101140;;;;
2021/04/27 01:00:40;;;;;;;8.0;5.6;;;;;;;5.9;54.9;101150;;;;
2021/04/27 01:02:40;;;;;;;8.0;5.6;;;;;;;5.8;54.9;101140;;;;
2021/04/27 01:08:40;;;;;;;8.0;5.6;;;;;;;5.7;55.2;101130;;;;
2021/04/27 01:10:40;;;;;;;8.0;5.6;;;;;;;5.6;55.4;101130;;;;
2021/04/27 01:14:40;;;;;;;8.0;5.6;;;;;;;5.7;54.8;101130;;;;
2021/04/27 01:18:42;;;;;;;6.5;5.8;;;;;;;5.8;54.6;101120;;;;
2021/04/27 01:20:40;;;;;;;6.5;5.8;;;;;;;5.7;54.5;101120;;;;
2021/04/27 01:24:40;;;;;;;6.5;5.8;;;;;;;5.6;55.3;101120;;;;
2021/04/27 01:28:40;;;;;;;6.5;5.8;;;;;;;5.4;55.8;101120;;;;
2021/04/27 01:30:40;;;;;;;6.5;5.8;;;;;;;5.3;56.2;101110;;;;
2021/04/27 01:32:40;;;;;;;6.5;5.8;;;;;;;5.2;56.6;101110;;;;
2021/04/27 01:38:40;;;;;;;7.7;6.2;;;;;;;5.1;56.7;101100;;;;
2021/04/27 01:40:40;;;;;;;7.7;6.2;;;;;;;5.2;56.4;101100;;;;
2021/04/27 01:46:40;;;;;;;7.7;6.2;;;;;;;5.1;56.8;101100;;;;
2021/04/27 02:06:40;;;;;;;7.5;6.7;;;;;;;5.0;56.1;101080;;;;
2021/04/27 02:08:40;;;;;;;7.5;6.7;;;;;;;4.9;57.1;101080;;;;
2021/04/27 02:10:40;;;;;;;7.5;6.7;;;;;;;5.1;56.7;101080;;;;
2021/04/27 02:12:40;;;;;;;7.5;6.7;;;;;;;5.2;56.7;101080;;;;
2021/04/27 02:14:40;;;;;;;7.5;6.7;;;;;;;5.0;56.6;101090;;;;
2021/04/27 02:16:40;;;;;;;8.8;7.2;;;;;;;4.9;57.1;101080;;;;
2021/04/27 02:20:40;;;;;;;8.8;7.2;;;;;;;5.0;56.4;101080;;;;
2021/04/27 02:22:40;;;;;;;8.8;7.2;;;;;;;5.1;56.7;101080;;;;
2021/04/27 02:26:40;;;;;;;8.8;7.2;;;;;;;4.9;56.8;101070;;;;
2021/04/27 02:28:40;;;;;;;8.8;7.2;;;;;;;4.7;57.5;101070;;;;
2021/04/27 02:30:40;;;;;;;8.8;7.2;;;;;;;4.9;56.9;101070;;;;
2021/04/27 02:36:40;;;;;;;8.8;8.0;;;;;;;4.8;56.6;101070;;;;
2021/04/27 02:40:40;;;;;;;8.8;8.0;;;;;;;4.7;57.6;101070;;;;
2021/04/27 02:42:40;;;;;;;8.8;8.0;;;;;;;4.8;56.5;101060;;;;
2021/04/27 02:46:40;;;;;;;8.8;8.0;;;;;;;4.7;57.3;101060;;;;
2021/04/27 02:48:40;;;;;;;8.8;8.0;;;;;;;4.5;57.8;101060;;;;
2021/04/27 02:50:40;;;;;;;8.8;8.0;;;;;;;4.7;57.3;101060;;;;
2021/04/27 02:54:40;;;;;;;8.8;8.0;;;;;;;4.6;57.5;101060;;;;
2021/04/27 03:00:40;;;;;;;8.3;7.4;;;;;;;4.7;55.9;101060;;;;
2021/04/27 03:02:40;;;;;;;8.3;7.4;;;;;;;4.8;56.1;101060;;;;
2021/04/27 03:06:40;;;;;;;8.3;7.4;;;;;;;4.7;55.9;101060;;;;
2021/04/27 03:08:40;;;;;;;8.3;7.4;;;;;;;4.8;55.8;101060;;;;
2021/04/27 03:16:40;;;;;;;9.8;7.9;;;;;;;4.5;57.5;101050;;;;
2021/04/27 03:18:40;;;;;;;9.8;7.9;;;;;;;4.4;57.6;101050;;;;
2021/04/27 03:20:42;;;;;;;9.8;7.9;;;;;;;4.5;57.3;101050;;;;
2021/04/27 03:24:40;;;;;;;9.8;7.9;;;;;;;4.4;57.6;101040;;;;
2021/04/27 03:26:40;;;;;;;9.8;7.9;;;;;;;4.5;57.0;101040;;;;
2021/04/27 03:28:40;;;;;;;9.8;7.9;;;;;;;4.4;57.6;101040;;;;
2021/04/27 03:30:40;;;;;;;9.8;7.9;;;;;;;4.2;58.0;101040;;;;
2021/04/27 03:32:40;;;;;;;9.8;7.9;;;;;;;4.3;57.4;101040;;;;
2021/04/27 03:34:40;;;;;;;9.8;7.9;;;;;;;4.4;57.1;101030;;;;
2021/04/27 03:40:40;;;;;;;8.4;7.6;;;;;;;4.3;56.8;101030;;;;
2021/04/27 03:44:40;;;;;;;8.4;7.6;;;;;;;4.4;56.0;101030;;;;
2021/04/27 03:48:40;;;;;;;8.4;7.6;;;;;;;4.3;56.9;101040;;;;
2021/04/27 03:50:40;;;;;;;8.4;7.6;;;;;;;4.5;55.6;101030;;;;
2021/04/27 04:00:40;;;;;;;8.6;7.7;;;;;;;4.4;55.6;101030;;;;
2021/04/27 04:02:40;;;;;;;8.6;7.7;;;;;;;4.3;56.1;101030;;;;
2021/04/27 04:08:40;;;;;;;8.6;7.7;;;;;;;4.1;57.4;101030;;;;
2021/04/27 04:10:40;;;;;;;8.6;7.7;;;;;;;4.0;58.1;101030;;;;
2021/04/27 04:12:40;;;;;;;8.6;7.7;;;;;;;3.9;58.4;101030;;;;
2021/04/27 04:14:40;;;;;;;8.3;7.6;;;;;;;4.1;57.3;101030;;;;
2021/04/27 04:16:40;;;;;;;8.3;7.6;;;;;;;4.0;58.2;101030;;;;
2021/04/27 04:24:40;;;;;;;8.3;7.6;;;;;;;4.1;57.5;101020;;;;
2021/04/27 04:26:40;;;;;;;8.3;7.6;;;;;;;4.0;57.5;101030;;;;
2021/04/27 04:28:41;;;;;;;8.3;7.6;;;;;;;3.9;58.5;101030;;;;
2021/04/27 04:30:40;;;;;;;8.3;7.6;;;;;;;3.8;58.2;101030;;;;
2021/04/27 04:34:40;;;;;;;9.7;8.4;;;;;;;4.0;56.9;101030;;;;
2021/04/27 04:36:41;;;;;;;9.7;8.4;;;;;;;3.9;58.0;101020;;;;
2021/04/27 04:40:40;;;;;;;9.7;8.4;;;;;;;3.8;58.0;101030;;;;
2021/04/27 04:50:40;;;;;;;9.7;8.4;;;;;;;3.6;59.2;101040;;;;
2021/04/27 04:52:40;;;;;;;9.7;8.4;;;;;;;3.8;59.1;101040;;;;
2021/04/27 05:02:40;;;;;;;11.3;8.5;;;;;;;3.7;59.0;101030;;;;
2021/04/27 05:04:40;;;;;;;11.3;8.5;;;;;;;3.9;58.9;101030;;;;
2021/04/27 05:06:42;;;;;;;11.3;8.5;;;;;;;3.8;58.3;101030;;;;
2021/04/27 05:08:44;;;;;;;11.3;8.5;;;;;;;4.0;58.7;101030;;;;
2021/04/27 05:10:40;;;;;;;11.3;8.5;;;;;;;3.8;59.1;101030;;;;
2021/04/27 05:14:40;;;;;;;9.4;8.5;;;;;;;4.0;58.5;101020;;;;
2021/04/27 05:16:41;;;;;;;9.4;8.5;;;;;;;4.1;57.8;101020;;;;
2021/04/27 05:18:40;;;;;;;9.4;8.5;;;;;;;4.2;57.6;101020;;;;
2021/04/27 05:20:41;;;;;;;9.4;8.5;;;;;;;4.1;57.5;101030;;;;
2021/04/27 05:28:40;;;;;;;9.4;8.5;;;;;;;4.3;58.3;101020;;;;
2021/04/27 05:32:40;;;;;;;9.4;8.5;;;;;;;4.4;57.7;101020;;;;
2021/04/27 05:40:40;;;;;;;9.8;8.8;;;;;;;4.6;57.7;101020;;;;
2021/04/27 05:44:40;;;;;;;9.8;8.8;;;;;;;4.7;58.1;101020;;;;
2021/04/27 05:48:40;;;;;;;9.8;8.8;;;;;;;4.9;57.7;101010;;;;
2021/04/27 05:52:40;;;;;;;9.8;8.8;;;;;;;5.1;57.4;101010;;;;
2021/04/27 05:58:40;;;;;;;9.1;8.3;;;;;;;5.3;57.6;101010;;;;
2021/04/27 06:04:40;;;;;;;9.1;8.3;;;;;;;5.5;57.0;101010;;;;
2021/04/27 06:06:40;;;;;;;9.1;8.3;;;;;;;5.7;56.9;101010;;;;
2021/04/27 06:12:40;;;;;;;9.1;8.3;;;;;;;5.9;55.9;101010;;;;
2021/04/27 06:16:40;;;;;;;9.4;8.4;;;;;;;6.0;55.5;101020;;;;
2021/04/27 06:18:40;;;;;;;9.4;8.4;;;;;;;6.1;55.5;101020;;;;
2021/04/27 06:22:40;;;;;;;9.4;8.4;;;;;;;6.2;54.9;101020;;;;
2021/04/27 06:24:50;;;;;;;9.4;8.4;;;;;;;6.4;54.4;101020;;;;
2021/04/27 06:26:40;;;;;;;9.4;8.4;;;;;;;6.6;53.9;101020;;;;
2021/04/27 06:28:40;;;;;;;9.4;8.4;;;;;;;6.7;53.4;101020;;;;
2021/04/27 06:30:40;;;;;;;9.4;8.4;;;;;;;6.6;53.7;101020;;;;
2021/04/27 06:32:40;;;;;;;9.4;8.4;;;;;;;6.8;53.0;101030;;;;
2021/04/27 06:34:41;;;;;;;8.4;7.5;;;;;;;7.0;52.2;101020;;;;
2021/04/27 06:36:41;;;;;;;8.4;7.5;;;;;;;7.1;52.1;101020;;;;
2021/04/27 06:38:40;;;;;;;8.4;7.5;;;;;;;7.2;52.2;101020;;;;
2021/04/27 06:40:40;;;;;;;8.4;7.5;;;;;;;7.3;51.6;101020;;;;
2021/04/27 06:42:40;;;;;;;8.4;7.5;;;;;;;7.4;51.3;101020;;;;
2021/04/27 06:44:40;;;;;;;8.4;7.5;;;;;;;7.3;50.6;101010;;;;
2021/04/27 06:46:40;;;;;;;8.4;7.5;;;;;;;7.6;50.1;101010;;;;
2021/04/27 06:48:41;;;;;;;8.4;7.5;;;;;;;7.7;50.2;101010;;;;
2021/04/27 06:52:40;;;;;;;8.4;7.5;;;;;;;7.8;49.1;101010;;;;
2021/04/27 06:54:40;;;;;;;7.9;7.1;;;;;;;7.9;48.5;101010;;;;
2021/04/27 06:58:40;;;;;;;7.9;7.1;;;;;;;7.8;48.3;101010;;;;
2021/04/27 07:00:40;;;;;;;7.9;7.1;;;;;;;7.9;48.2;101010;;;;
2021/04/27 07:02:41;;;;;;;7.9;7.1;;;;;;;8.1;47.2;101010;;;;
2021/04/27 07:04:41;;;;;;;7.9;7.1;;;;;;;8.2;46.9;101000;;;;
2021/04/27 07:06:40;;;;;;;7.9;7.1;;;;;;;8.1;46.2;101000;;;;
2021/04/27 07:16:40;;;;;;;8.8;6.5;;;;;;;8.2;46.5;101000;;;;
2021/04/27 07:20:41;;;;;;;8.8;6.5;;;;;;;8.3;45.5;101000;;;;
2021/04/27 07:22:40;;;;;;;8.8;6.5;;;;;;;8.5;44.9;101000;;;;
2021/04/27 07:24:40;;;;;;;8.8;6.5;;;;;;;8.4;44.3;101000;;;;
2021/04/27 07:26:41;;;;;;;8.8;6.5;;;;;;;8.3;45.0;101000;;;;
2021/04/27 07:28:40;;;;;;;8.8;6.5;;;;;;;8.4;44.0;100990;;;;
2021/04/27 07:30:40;;;;;;;8.8;6.5;;;;;;;8.5;44.6;100990;;;;
2021/04/27 07:32:41;;;;;;;8.8;6.5;;;;;;;8.6;44.3;100990;;;;
2021/04/27 07:34:40;;;;;;;9.1;6.1;;;;;;;8.9;44.4;100990;;;;
2021/04/27 07:38:40;;;;;;;9.1;6.1;;;;;;;9.1;42.8;100990;;;;
2021/04/27 07:40:42;;;;;;;9.1;6.1;;;;;;;9.0;42.4;100980;;;;
2021/04/27 07:42:40;;;;;;;9.1;6.1;;;;;;;9.1;42.2;100980;;;;
2021/04/27 07:44:40;;;;;;;9.1;6.1;;;;;;;9.2;41.5;100970;;;;
2021/04/27 07:46:40;;;;;;;9.1;6.1;;;;;;;9.1;41.7;100970;;;;
2021/04/27 07:48:41;;;;;;;9.1;6.1;;;;;;;9.2;41.7;100970;;;;
2021/04/27 07:50:40;;;;;;;9.1;6.1;;;;;;;9.3;41.3;100970;;;;
2021/04/27 07:52:40;;;;;;;9.1;6.1;;;;;;;9.4;41.0;100970;;;;
2021/04/27 07:56:40;;;;;;;5.9;5.0;;;;;;;9.5;41.5;100970;;;;
2021/04/27 07:58:40;;;;;;;5.9;5.0;;;;;;;9.6;40.8;100980;;;;
2021/04/27 08:00:40;;;;;;;5.9;5.0;;;;;;;9.7;40.6;100970;;;;
2021/04/27 08:02:41;;;;;;;5.9;5.0;;;;;;;9.9;40.8;100970;;;;
2021/04/27 08:06:40;;;;;;;5.9;5.0;;;;;;;10.0;40.7;100960;;;;
2021/04/27 08:08:40;;;;;;;5.9;5.0;;;;;;;10.1;40.9;100970;;;;
2021/04/27 08:10:40;;;;;;;5.9;5.0;;;;;;;10.3;39.3;100960;;;;
2021/04/27 08:12:41;;;;;;;5.9;5.0;;;;;;;10.2;39.7;100960;;;;
2021/04/27 08:14:40;;;;;;;6.7;5.1;;;;;;;10.3;39.9;100960;;;;
2021/04/27 08:16:41;;;;;;;6.7;5.1;;;;;;;10.5;39.6;100960;;;;
2021/04/27 08:18:41;;;;;;;6.7;5.1;;;;;;;10.6;39.8;100950;;;;
2021/04/27 08:22:41;;;;;;;6.7;5.1;;;;;;;10.8;40.0;100960;;;;
2021/04/27 08:26:40;;;;;;;6.7;5.1;;;;;;;10.9;37.5;100960;;;;
2021/04/27 08:30:40;;;;;;;6.7;5.1;;;;;;;10.7;37.9;100960;;;;
2021/04/27 08:32:40;;;;;;;6.7;5.1;;;;;;;10.8;38.3;100960;;;;
2021/04/27 08:34:40;;;;;;;5.2;4.7;;;;;;;11.1;37.0;100960;;;;
2021/04/27 08:36:43;;;;;;;5.2;4.7;;;;;;;11.0;37.2;100960;;;;
2021/04/27 08:38:41;;;;;;;5.2;4.7;;;;;;;11.1;37.2;100960;;;;
2021/04/27 08:40:40;;;;;;;5.2;4.7;;;;;;;11.2;36.6;100960;;;;
2021/04/27 08:42:40;;;;;;;5.2;4.7;;;;;;;11.3;36.9;100960;;;;
2021/04/27 08:44:40;;;;;;;5.2;4.7;;;;;;;11.4;35.6;100950;;;;
2021/04/27 08:48:40;;;;;;;5.2;4.7;;;;;;;11.5;36.3;100960;;;;
2021/04/27 08:50:40;;;;;;;5.2;4.7;;;;;;;11.6;36.7;100950;;;;
2021/04/27 08:52:40;;;;;;;5.2;4.7;;;;;;;11.8;36.2;100950;;;;
2021/04/27 08:54:40;;;;;;;5.4;4.7;;;;;;;11.9;35.9;100950;;;;
2021/04/27 08:58:40;;;;;;;5.4;4.7;;;;;;;12.1;36.1;100950;;;;
2021/04/27 09:00:40;;;;;;;5.4;4.7;;;;;;;12.2;35.4;100950;;;;
2021/04/27 09:02:41;;;;;;;5.4;4.7;;;;;;;12.4;35.7;100940;;;;
2021/04/27 09:06:41;;;;;;;5.4;4.7;;;;;;;12.2;35.0;100940;;;;
2021/04/27 09:08:41;;;;;;;5.4;4.7;;;;;;;12.3;34.5;100940;;;;
2021/04/27 09:10:40;;;;;;;5.4;4.7;;;;;;;12.4;35.1;100940;;;;
2021/04/27 09:12:40;;;;;;;5.4;4.7;;;;;;;12.5;34.9;100940;;;;
2021/04/27 09:14:40;;;;;;;7.0;4.9;;;;;;;12.4;34.9;100940;;;;
2021/04/27 09:16:40;;;;;;;7.0;4.9;;;;;;;12.5;35.2;100930;;;;
2021/04/27 09:18:40;;;;;;;7.0;4.9;;;;;;;12.6;34.6;100940;;;;
2021/04/27 09:20:40;;;;;;;7.0;4.9;;;;;;;12.7;34.5;100940;;;;
2021/04/27 09:24:40;;;;;;;7.0;4.9;;;;;;;12.8;34.3;100930;;;;
2021/04/27 09:26:40;;;;;;;7.0;4.9;;;;;;;12.9;34.6;100930;;;;
2021/04/27 09:28:40;;;;;;;7.0;4.9;;;;;;;12.7;34.5;100930;;;;
2021/04/27 09:30:40;;;;;;;7.0;4.9;;;;;;;12.9;34.7;100920;;;;
2021/04/27 09:32:41;;;;;;;7.0;4.9;;;;;;;13.0;34.6;100920;;;;
2021/04/27 09:34:40;;;;;;;8.3;4.9;;;;;;;13.2;32.9;100920;;;;
2021/04/27 09:36:40;;;;;;;8.3;4.9;;;;;;;13.1;33.3;100910;;;;
2021/04/27 09:38:40;;;;;;;8.3;4.9;;;;;;;13.0;34.0;100910;;;;
2021/04/27 09:48:50;;;;;;;8.3;4.9;;;;;;;13.3;33.4;100890;;;;
2021/04/27 09:50:40;;;;;;;8.3;4.9;;;;;;;13.5;32.2;100900;;;;
2021/04/27 09:52:40;;;;;;;8.3;4.9;;;;;;;13.4;31.7;100890;;;;
2021/04/27 09:56:41;;;;;;;7.8;4.9;;;;;;;13.3;30.7;100880;;;;
2021/04/27 10:00:40;;;;;;;7.8;4.9;;;;;;;13.2;30.8;100880;;;;
2021/04/27 10:02:40;;;;;;;7.8;4.9;;;;;;;13.3;31.5;100880;;;;
2021/04/27 10:04:40;;;;;;;7.8;4.9;;;;;;;13.4;31.4;100870;;;;
2021/04/27 10:06:41;;;;;;;7.8;4.9;;;;;;;13.7;31.3;100870;;;;
2021/04/27 10:08:40;;;;;;;7.8;4.9;;;;;;;13.6;31.5;100870;;;;
2021/04/27 10:10:41;;;;;;;7.8;4.9;;;;;;;13.4;30.5;100870;;;;
2021/04/27 10:12:40;;;;;;;7.8;4.9;;;;;;;13.7;31.6;100870;;;;
2021/04/27 10:14:40;;;;;;;6.2;4.8;;;;;;;13.6;30.5;100860;;;;
2021/04/27 10:16:40;;;;;;;6.2;4.8;;;;;;;13.7;30.3;100860;;;;
2021/04/27 10:18:40;;;;;;;6.2;4.8;;;;;;;13.5;29.9;100870;;;;
2021/04/27 10:20:41;;;;;;;6.2;4.8;;;;;;;13.6;30.2;100870;;;;
2021/04/27 10:24:40;;;;;;;6.2;4.8;;;;;;;13.7;30.1;100860;;;;
2021/04/27 10:26:40;;;;;;;6.2;4.8;;;;;;;13.8;30.4;100860;;;;
2021/04/27 10:28:40;;;;;;;6.2;4.8;;;;;;;13.5;30.9;100860;;;;
2021/04/27 10:30:40;;;;;;;6.2;4.8;;;;;;;13.8;31.4;100850;;;;
2021/04/27 10:32:40;;;;;;;6.2;4.8;;;;;;;13.9;31.3;100850;;;;
2021/04/27 10:36:40;;;;;;;8.1;4.8;;;;;;;14.1;31.8;100850;;;;
2021/04/27 10:38:40;;;;;;;8.1;4.8;;;;;;;13.9;30.3;100850;;;;
2021/04/27 10:40:40;;;;;;;8.1;4.8;;;;;;;13.4;29.0;100850;;;;
2021/04/27 10:42:40;;;;;;;8.1;4.8;;;;;;;13.7;30.0;100850;;;;
2021/04/27 10:44:40;;;;;;;8.1;4.8;;;;;;;13.8;30.0;100840;;;;
2021/04/27 10:50:40;;;;;;;8.1;4.8;;;;;;;13.9;29.9;100840;;;;
2021/04/27 10:52:40;;;;;;;8.1;4.8;;;;;;;14.3;30.6;100840;;;;
2021/04/27 10:56:40;;;;;;;5.5;4.6;;;;;;;14.4;29.3;100840;;;;
2021/04/27 11:02:40;;;;;;;5.5;4.6;;;;;;;14.1;28.4;100840;;;;
2021/04/27 11:06:40;;;;;;;5.5;4.6;;;;;;;14.4;29.1;100830;;;;
2021/04/27 11:08:40;;;;;;;5.5;4.6;;;;;;;14.2;27.8;100830;;;;
2021/04/27 11:10:40;;;;;;;5.5;4.6;;;;;;;14.5;27.3;100830;;;;
2021/04/27 11:12:41;;;;;;;5.5;4.6;;;;;;;14.4;27.4;100830;;;;
2021/04/27 11:14:40;;;;;;;8.9;4.9;;;;;;;14.3;27.4;100820;;;;
2021/04/27 11:16:44;;;;;;;8.9;4.9;;;;;;;14.4;27.7;100820;;;;
2021/04/27 11:18:41;;;;;;;8.9;4.9;;;;;;;14.5;27.1;100820;;;;
2021/04/27 11:20:40;;;;;;;8.9;4.9;;;;;;;14.1;26.3;100810;;;;
2021/04/27 11:24:40;;;;;;;8.9;4.9;;;;;;;14.2;27.2;100810;;;;
2021/04/27 11:26:40;;;;;;;8.9;4.9;;;;;;;14.4;26.9;100810;;;;
2021/04/27 11:30:40;;;;;;;8.9;4.9;;;;;;;14.6;27.3;100810;;;;
2021/04/27 11:32:41;;;;;;;8.9;4.9;;;;;;;14.5;27.7;100810;;;;
2021/04/27 11:34:40;;;;;;;5.8;4.6;;;;;;;14.4;26.8;100810;;;;
2021/04/27 11:36:40;;;;;;;5.8;4.6;;;;;;;14.5;28.4;100810;;;;
2021/04/27 11:38:41;;;;;;;5.8;4.6;;;;;;;14.4;28.0;100800;;;;
2021/04/27 11:40:42;;;;;;;5.8;4.6;;;;;;;14.6;27.1;100810;;;;
2021/04/27 11:44:40;;;;;;;5.8;4.6;;;;;;;14.8;28.5;100810;;;;
2021/04/27 11:46:40;;;;;;;5.8;4.6;;;;;;;15.0;27.7;100800;;;;
2021/04/27 11:48:40;;;;;;;5.8;4.6;;;;;;;15.2;27.4;100800;;;;
2021/04/27 11:50:40;;;;;;;5.8;4.6;;;;;;;14.9;27.9;100800;;;;
2021/04/27 11:56:40;;;;;;;6.7;4.8;;;;;;;15.0;27.2;100800;;;;
2021/04/27 12:00:40;;;;;;;6.7;4.8;;;;;;;15.1;27.9;100790;;;;
2021/04/27 12:02:40;;;;;;;6.7;4.8;;;;;;;15.3;29.3;100790;;;;
2021/04/27 12:08:40;;;;;;;6.7;4.8;;;;;;;15.4;26.8;100780;;;;
2021/04/27 12:10:40;;;;;;;6.7;4.8;;;;;;;15.2;27.5;100780;;;;
2021/04/27 12:12:40;;;;;;;6.7;4.8;;;;;;;15.4;28.5;100780;;;;
2021/04/27 12:20:40;;;;;;;7.3;4.7;;;;;;;15.5;27.9;100770;;;;
2021/04/27 12:22:40;;;;;;;7.3;4.7;;;;;;;15.3;28.1;100770;;;;
2021/04/27 12:24:42;;;;;;;7.3;4.7;;;;;;;15.1;28.1;100760;;;;
2021/04/27 12:26:40;;;;;;;7.3;4.7;;;;;;;15.4;27.6;100770;;;;
2021/04/27 12:28:40;;;;;;;7.3;4.7;;;;;;;15.2;26.8;100770;;;;
2021/04/27 12:30:40;;;;;;;7.3;4.7;;;;;;;15.5;27.8;100760;;;;
2021/04/27 12:32:44;;;;;;;7.3;4.7;;;;;;;15.6;26.8;100760;;;;
2021/04/27 12:34:40;;;;;;;4.9;4.4;;;;;;;15.7;27.7;100760;;;;
2021/04/27 12:36:41;;;;;;;4.9;4.4;;;;;;;15.6;26.5;100760;;;;
2021/04/27 12:38:40;;;;;;;4.9;4.4;;;;;;;15.8;27.9;100760;;;;
2021/04/27 12:40:40;;;;;;;4.9;4.4;;;;;;;15.7;26.8;100750;;;;
2021/04/27 12:46:40;;;;;;;4.9;4.4;;;;;;;15.4;27.0;100750;;;;
2021/04/27 12:48:41;;;;;;;4.9;4.4;;;;;;;15.8;26.6;100750;;;;
2021/04/27 12:50:40;;;;;;;4.9;4.4;;;;;;;16.0;26.7;100740;;;;
2021/04/27 12:52:40;;;;;;;4.9;4.4;;;;;;;16.2;26.9;100750;;;;
2021/04/27 12:54:40;;;;;;;6.4;4.6;;;;;;;15.9;25.4;100740;;;;
2021/04/27 13:02:41;;;;;;;6.4;4.6;;;;;;;16.0;29.3;100740;;;;
2021/04/27 13:04:40;;;;;;;6.4;4.6;;;;;;;15.4;26.1;100740;;;;
2021/04/27 13:06:40;;;;;;;6.4;4.6;;;;;;;15.6;26.7;100730;;;;
2021/04/27 13:08:40;;;;;;;6.4;4.6;;;;;;;15.8;28.4;100730;;;;
2021/04/27 13:10:40;;;;;;;6.4;4.6;;;;;;;15.9;26.7;100730;;;;
2021/04/27 13:12:40;;;;;;;6.4;4.6;;;;;;;15.8;27.6;100720;;;;
2021/04/27 13:14:42;;;;;;;5.4;4.4;;;;;;;16.0;26.3;100720;;;;
2021/04/27 13:16:40;;;;;;;5.4;4.4;;;;;;;16.1;26.9;100720;;;;
2021/04/27 13:18:40;;;;;;;5.4;4.4;;;;;;;16.3;28.5;100720;;;;
2021/04/27 13:20:40;;;;;;;5.4;4.4;;;;;;;16.2;26.8;100710;;;;
2021/04/27 13:22:41;;;;;;;5.4;4.4;;;;;;;16.1;26.5;100710;;;;
2021/04/27 13:24:40;;;;;;;5.4;4.4;;;;;;;15.9;26.3;100710;;;;
2021/04/27 13:30:40;;;;;;;5.4;4.4;;;;;;;16.0;25.8;100710;;;;
2021/04/27 13:32:41;;;;;;;5.4;4.4;;;;;;;16.2;27.2;100710;;;;
2021/04/27 13:34:40;;;;;;;5.5;4.6;;;;;;;16.3;26.6;100700;;;;
2021/04/27 13:36:40;;;;;;;5.5;4.6;;;;;;;16.2;26.6;100700;;;;
2021/04/27 13:38:40;;;;;;;5.5;4.6;;;;;;;16.0;25.7;100700;;;;
2021/04/27 13:40:40;;;;;;;5.5;4.6;;;;;;;16.5;27.6;100690;;;;
2021/04/27 13:42:40;;;;;;;5.5;4.6;;;;;;;16.4;25.5;100690;;;;
2021/04/27 13:44:40;;;;;;;5.5;4.6;;;;;;;16.0;25.5;100700;;;;
2021/04/27 13:46:40;;;;;;;5.5;4.6;;;;;;;16.1;24.8;100690;;;;
2021/04/27 13:48:40;;;;;;;5.5;4.6;;;;;;;16.4;27.2;100680;;;;
2021/04/27 13:50:40;;;;;;;5.5;4.6;;;;;;;16.5;25.3;100680;;;;
2021/04/27 13:52:40;;;;;;;5.4;4.8;;;;;;;16.3;26.0;100680;;;;
2021/04/27 13:56:40;;;;;;;5.4;4.8;;;;;;;16.4;25.6;100670;;;;
2021/04/27 13:58:40;;;;;;;5.4;4.8;;;;;;;16.5;25.3;100670;;;;
2021/04/27 14:00:41;;;;;;;5.4;4.8;;;;;;;16.4;23.7;100660;;;;
2021/04/27 14:08:40;;;;;;;5.4;4.8;;;;;;;16.7;26.2;100650;;;;
2021/04/27 14:12:40;;;;;;;4.4;4.1;;;;;;;16.6;23.6;100640;;;;
2021/04/27 14:14:40;;;;;;;4.4;4.1;;;;;;;16.8;23.7;100650;;;;
2021/04/27 14:16:40;;;;;;;4.4;4.1;;;;;;;16.6;23.8;100640;;;;
2021/04/27 14:18:40;;;;;;;4.4;4.1;;;;;;;16.7;24.6;100640;;;;
2021/04/27 14:20:41;;;;;;;4.4;4.1;;;;;;;16.6;23.1;100630;;;;
2021/04/27 14:24:40;;;;;;;4.4;4.1;;;;;;;16.8;24.2;100640;;;;
2021/04/27 14:26:40;;;;;;;4.4;4.1;;;;;;;16.9;27.2;100630;;;;
2021/04/27 14:28:40;;;;;;;4.4;4.1;;;;;;;17.0;24.8;100630;;;;
2021/04/27 14:30:40;;;;;;;4.4;4.1;;;;;;;16.9;23.2;100630;;;;
2021/04/27 14:32:40;;;;;;;4.7;4.3;;;;;;;16.6;23.0;100620;;;;
2021/04/27 14:34:40;;;;;;;4.7;4.3;;;;;;;16.3;22.1;100620;;;;
2021/04/27 14:36:40;;;;;;;4.7;4.3;;;;;;;16.4;23.2;100610;;;;
2021/04/27 14:38:42;;;;;;;4.7;4.3;;;;;;;16.6;23.5;100610;;;;
2021/04/27 14:40:40;;;;;;;4.7;4.3;;;;;;;16.9;26.1;100620;;;;
2021/04/27 14:42:40;;;;;;;4.7;4.3;;;;;;;17.3;24.2;100620;;;;
2021/04/27 14:44:40;;;;;;;4.7;4.3;;;;;;;17.0;22.5;100610;;;;
2021/04/27 14:46:40;;;;;;;4.7;4.3;;;;;;;16.9;21.9;100610;;;;
2021/04/27 14:48:40;;;;;;;4.7;4.3;;;;;;;17.1;25.8;100610;;;;
2021/04/27 14:50:40;;;;;;;4.7;4.3;;;;;;;17.2;24.4;100610;;;;
2021/04/27 14:52:41;;;;;;;4.4;4.0;;;;;;;17.6;26.4;100600;;;;
2021/04/27 14:54:40;;;;;;;4.4;4.0;;;;;;;17.5;22.2;100610;;;;
2021/04/27 14:56:40;;;;;;;4.4;4.0;;;;;;;17.1;22.0;100610;;;;
2021/04/27 14:58:40;;;;;;;4.4;4.0;;;;;;;17.4;21.7;100610;;;;
2021/04/27 15:00:40;;;;;;;4.4;4.0;;;;;;;17.5;21.9;100600;;;;
2021/04/27 15:02:41;;;;;;;4.4;4.0;;;;;;;17.6;22.3;100590;;;;
2021/04/27 15:04:41;;;;;;;4.4;4.0;;;;;;;17.9;25.9;100600;;;;
2021/04/27 15:06:40;;;;;;;4.4;4.0;;;;;;;18.0;22.0;100600;;;;
2021/04/27 15:08:40;;;;;;;4.4;4.0;;;;;;;18.1;23.3;100590;;;;
2021/04/27 15:10:40;;;;;;;4.4;4.0;;;;;;;18.3;22.9;100590;;;;
2021/04/27 15:12:40;;;;;;;6.6;4.2;;;;;;;18.0;23.4;100590;;;;
2021/04/27 15:14:40;;;;;;;6.6;4.2;;;;;;;18.2;21.0;100600;;;;
2021/04/27 15:16:41;;;;;;;6.6;4.2;;;;;;;17.6;20.3;100600;;;;
2021/04/27 15:18:41;;;;;;;6.6;4.2;;;;;;;18.0;21.1;100590;;;;
2021/04/27 15:20:40;;;;;;;6.6;4.2;;;;;;;18.4;21.8;100590;;;;
2021/04/27 15:22:17;;;;;;;6.6;4.2;;;;;;;18.4;21.8;100590;;;;
2021/04/27 15:22:40;;;;;;;6.6;4.2;;;;;;;18.5;21.5;100590;;;;
2021/04/27 15:24:40;;;;;;;6.6;4.2;;;;;;;18.8;22.7;100590;;;;
2021/04/27 15:26:40;;;;;;;6.6;4.2;;;;;;;19.0;21.2;100590;;;;
2021/04/27 15:28:41;;;;;;;6.6;4.2;;;;;;;19.4;20.7;100590;;;;
2021/04/27 15:30:40;;;;;;;6.6;4.2;;;;;;;19.1;22.2;100580;;;;
2021/04/27 15:32:40;;;;;;;5.8;4.2;;;;;;;18.9;19.7;100590;;;;
2021/04/27 15:34:40;;;;;;;5.8;4.2;;;;;;;18.8;19.5;100590;;;;
2021/04/27 15:36:40;;;;;;;5.8;4.2;;;;;;;19.3;20.4;100590;;;;
2021/04/27 15:38:40;;;;;;;5.8;4.2;;;;;;;19.7;20.4;100590;;;;
2021/04/27 15:40:42;;;;;;;5.8;4.2;;;;;;;19.3;19.9;100590;;;;
2021/04/27 15:42:40;;;;;;;5.8;4.2;;;;;;;19.7;19.9;100580;;;;
2021/04/27 15:44:40;;;;;;;5.8;4.2;;;;;;;19.6;20.0;100590;;;;
2021/04/27 15:46:40;;;;;;;5.8;4.2;;;;;;;19.9;20.1;100580;;;;
2021/04/27 15:48:40;;;;;;;5.8;4.2;;;;;;;20.5;20.1;100580;;;;
2021/04/27 15:50:41;;;;;;;5.8;4.2;;;;;;;20.4;19.4;100590;;;;
2021/04/27 15:52:40;;;;;;;5.7;4.7;;;;;;;20.3;19.7;100580;;;;
2021/04/27 15:54:40;;;;;;;5.7;4.7;;;;;;;20.6;19.4;100580;;;;
2021/04/27 15:56:40;;;;;;;5.7;4.7;;;;;;;20.9;19.3;100590;;;;
2021/04/27 15:58:40;;;;;;;5.7;4.7;;;;;;;20.8;19.8;100580;;;;
2021/04/27 16:00:40;;;;;;;5.7;4.7;;;;;;;20.7;18.2;100590;;;;
2021/04/27 16:02:41;;;;;;;5.7;4.7;;;;;;;20.5;18.8;100580;;;;
2021/04/27 16:04:40;;;;;;;5.7;4.7;;;;;;;21.0;19.9;100580;;;;
2021/04/27 16:06:40;;;;;;;5.7;4.7;;;;;;;20.7;18.2;100580;;;;
2021/04/27 16:10:40;;;;;;;5.7;4.7;;;;;;;21.2;19.5;100580;;;;
2021/04/27 16:12:40;;;;;;;5.1;4.0;;;;;;;21.0;17.8;100570;;;;
2021/04/27 16:14:40;;;;;;;5.1;4.0;;;;;;;21.3;18.0;100570;;;;
2021/04/27 16:18:40;;;;;;;5.1;4.0;;;;;;;21.6;18.5;100560;;;;
2021/04/27 16:20:40;;;;;;;5.1;4.0;;;;;;;21.0;17.1;100570;;;;
2021/04/27 16:22:40;;;;;;;5.1;4.0;;;;;;;20.6;17.4;100570;;;;
2021/04/27 16:24:40;;;;;;;5.1;4.0;;;;;;;20.4;16.7;100560;;;;
2021/04/27 16:26:41;;;;;;;5.1;4.0;;;;;;;20.5;17.7;100570;;;;
2021/04/27 16:28:40;;;;;;;5.1;4.0;;;;;;;21.1;18.0;100570;;;;
2021/04/27 16:30:42;;;;;;;5.1;4.0;;;;;;;20.9;17.7;100570;;;;
2021/04/27 16:32:40;;;;;;;35.3;31.6;;;;;;;21.2;18.3;100560;;;;
2021/04/27 16:34:40;;;;;;;35.3;31.6;;;;;;;21.0;18.4;100570;;;;
2021/04/27 16:36:40;;;;;;;35.3;31.6;;;;;;;20.6;17.8;100560;;;;
2021/04/27 16:38:40;;;;;;;35.3;31.6;;;;;;;21.0;17.9;100560;;;;
2021/04/27 16:40:40;;;;;;;35.3;31.6;;;;;;;20.8;17.8;100560;;;;
2021/04/27 16:42:40;;;;;;;35.3;31.6;;;;;;;20.3;18.3;100560;;;;
2021/04/27 16:44:40;;;;;;;35.3;31.6;;;;;;;20.5;18.1;100560;;;;
2021/04/27 16:46:43;;;;;;;35.3;31.6;;;;;;;20.3;18.4;100550;;;;
2021/04/27 16:48:41;;;;;;;35.3;31.6;;;;;;;19.4;19.6;100550;;;;
2021/04/27 16:50:40;;;;;;;35.3;31.6;;;;;;;18.7;19.2;100560;;;;
2021/04/27 16:52:40;;;;;;;4.9;4.4;;;;;;;18.5;19.8;100560;;;;
2021/04/27 16:54:40;;;;;;;4.9;4.4;;;;;;;18.9;20.5;100550;;;;
2021/04/27 16:56:40;;;;;;;4.9;4.4;;;;;;;18.6;19.8;100550;;;;
2021/04/27 16:58:40;;;;;;;4.9;4.4;;;;;;;18.5;19.9;100550;;;;
2021/04/27 17:04:40;;;;;;;4.9;4.4;;;;;;;18.8;20.2;100540;;;;
2021/04/27 17:06:40;;;;;;;4.9;4.4;;;;;;;18.7;20.2;100540;;;;
2021/04/27 17:08:40;;;;;;;4.9;4.4;;;;;;;18.8;20.7;100540;;;;
2021/04/27 17:10:40;;;;;;;4.9;4.4;;;;;;;18.9;19.6;100540;;;;
2021/04/27 17:12:40;;;;;;;6.8;4.0;;;;;;;19.0;20.3;100540;;;;
2021/04/27 17:14:40;;;;;;;6.8;4.0;;;;;;;19.1;19.8;100540;;;;
2021/04/27 17:16:40;;;;;;;6.8;4.0;;;;;;;19.4;19.8;100540;;;;
2021/04/27 17:18:40;;;;;;;6.8;4.0;;;;;;;19.7;19.6;100540;;;;
2021/04/27 17:20:42;;;;;;;6.8;4.0;;;;;;;18.7;20.1;100540;;;;
2021/04/27 17:22:41;;;;;;;6.8;4.0;;;;;;;18.6;21.0;100540;;;;
2021/04/27 17:24:40;;;;;;;6.8;4.0;;;;;;;17.8;20.9;100530;;;;
2021/04/27 17:26:40;;;;;;;6.8;4.0;;;;;;;17.6;21.4;100530;;;;
2021/04/27 17:28:40;;;;;;;6.8;4.0;;;;;;;17.7;22.0;100530;;;;
2021/04/27 17:30:40;;;;;;;6.8;4.0;;;;;;;17.6;22.0;100540;;;;
2021/04/27 17:32:41;;;;;;;11.9;8.8;;;;;;;17.5;22.1;100540;;;;
2021/04/27 17:34:40;;;;;;;11.9;8.8;;;;;;;17.2;22.1;100540;;;;
2021/04/27 17:36:40;;;;;;;11.9;8.8;;;;;;;16.9;22.7;100540;;;;
2021/04/27 17:38:40;;;;;;;11.9;8.8;;;;;;;16.5;23.0;100540;;;;
2021/04/27 17:40:41;;;;;;;11.9;8.8;;;;;;;16.4;23.6;100540;;;;
2021/04/27 17:42:40;;;;;;;11.9;8.8;;;;;;;16.2;23.1;100540;;;;
2021/04/27 17:46:40;;;;;;;11.9;8.8;;;;;;;16.1;23.8;100540;;;;
2021/04/27 17:48:40;;;;;;;11.9;8.8;;;;;;;16.0;23.7;100540;;;;
2021/04/27 17:50:40;;;;;;;11.9;8.8;;;;;;;15.9;24.4;100540;;;;
2021/04/27 17:54:40;;;;;;;15.9;12.3;;;;;;;15.6;25.0;100530;;;;
2021/04/27 17:58:40;;;;;;;15.9;12.3;;;;;;;15.4;24.7;100540;;;;